Time;durP1;ratioP1;P1;durP2;ratioP2;P2;SDS_P1;SDS_P2;PMS_P1;PMS_P2;Temp;Humidity;BMP_temperature;BMP_pressure;BME280_temperature;BME280_humidity;BME280_pressure;Samples;Min_cycle;Max_cycle;Signal;HPM_P1;HPM_P2
2021/08/11 00:00:32;;;;;;;9.55;4.97;;;13.10;99.90;;;;;;6195540;23;20080;-94
2021/08/11 00:02:58;;;;;;;8.63;4.95;;;13.10;99.90;;;;;;6213859;23;20005;-94
2021/08/11 00:05:25;;;;;;;8.35;4.80;;;13.10;99.90;;;;;;6187356;23;20040;-93
2021/08/11 00:07:50;;;;;;;6.65;4.63;;;13.10;99.90;;;;;;6188964;23;20076;-95
2021/08/11 00:10:16;;;;;;;9.27;4.50;;;13.10;99.90;;;;;;6188290;23;20068;-95
2021/08/11 00:12:42;;;;;;;9.13;4.85;;;13.00;99.90;;;;;;6187400;23;20009;-94
2021/08/11 00:15:08;;;;;;;7.25;4.95;;;13.00;99.90;;;;;;6186500;23;20092;-94
2021/08/11 00:17:34;;;;;;;7.40;4.57;;;13.00;99.90;;;;;;6186072;23;20053;-94
2021/08/11 00:20:00;;;;;;;6.38;4.30;;;13.00;99.90;;;;;;6210269;23;20441;-94
2021/08/11 00:22:26;;;;;;;7.75;4.93;;;13.00;99.90;;;;;;6185255;23;20016;-94
2021/08/11 00:24:51;;;;;;;8.40;4.97;;;13.00;99.90;;;;;;6187741;23;20009;-93
2021/08/11 00:27:17;;;;;;;9.13;5.75;;;13.00;99.90;;;;;;6187752;23;20063;-94
2021/08/11 00:29:42;;;;;;;10.80;5.95;;;13.00;99.90;;;;;;6187807;23;20447;-93
2021/08/11 00:32:08;;;;;;;13.93;6.45;;;12.90;99.90;;;;;;6186388;23;20001;-94
2021/08/11 00:34:34;;;;;;;9.52;5.95;;;12.90;99.90;;;;;;6210721;23;20059;-95
2021/08/11 00:37:02;;;;;;;7.80;5.50;;;12.80;99.90;;;;;;6184896;23;20302;-94
2021/08/11 00:39:28;;;;;;;6.57;5.03;;;12.80;99.90;;;;;;6184373;23;20087;-94
2021/08/11 00:41:54;;;;;;;12.18;5.07;;;12.70;99.90;;;;;;6189438;23;20008;-94
2021/08/11 00:44:20;;;;;;;7.43;5.95;;;12.70;99.90;;;;;;6189055;23;20051;-94
2021/08/11 00:46:46;;;;;;;7.13;5.10;;;12.70;99.90;;;;;;6189158;23;20005;-94
2021/08/11 00:49:14;;;;;;;9.10;5.38;;;12.60;99.90;;;;;;6188789;23;20003;-94
2021/08/11 00:51:41;;;;;;;9.65;5.38;;;12.60;99.90;;;;;;6213689;23;20171;-95
2021/08/11 00:54:07;;;;;;;11.55;6.25;;;12.60;99.90;;;;;;6188935;23;20012;-94
2021/08/11 00:56:39;;;;;;;10.05;5.43;;;12.70;99.90;;;;;;6188845;23;20005;-94
2021/08/11 00:59:06;;;;;;;7.95;5.70;;;12.70;99.90;;;;;;6187312;23;20028;-95
2021/08/11 01:01:33;;;;;;;13.60;5.82;;;12.70;99.90;;;;;;6186685;23;20080;-94
2021/08/11 01:04:02;;;;;;;6.80;5.18;;;12.70;99.90;;;;;;6190319;23;20028;-93
2021/08/11 01:06:30;;;;;;;9.90;5.35;;;12.70;99.90;;;;;;6190375;23;20017;-95
2021/08/11 01:08:57;;;;;;;11.43;6.10;;;12.60;99.90;;;;;;6192177;23;20013;-94
2021/08/11 01:11:25;;;;;;;8.05;5.43;;;12.60;99.90;;;;;;6190815;23;20001;-95
2021/08/11 01:13:51;;;;;;;8.45;5.28;;;12.50;99.90;;;;;;6191205;23;20099;-94
2021/08/11 01:16:17;;;;;;;10.27;6.05;;;12.50;99.90;;;;;;6188905;23;20009;-94
2021/08/11 01:18:43;;;;;;;9.98;5.90;;;12.50;99.90;;;;;;6186695;23;20017;-94
2021/08/11 01:21:15;;;;;;;12.57;6.10;;;12.50;99.90;;;;;;6187080;23;20468;-94
2021/08/11 01:24:03;;;;;;;10.73;5.68;;;12.50;99.90;;;;;;6187202;23;20133;-94
2021/08/11 01:27:00;;;;;;;11.88;5.72;;;12.50;99.90;;;;;;6189483;23;20028;-93
2021/08/11 01:29:57;;;;;;;12.10;5.80;;;12.50;99.90;;;;;;6203469;23;20065;-94
2021/08/11 01:32:31;;;;;;;9.02;5.97;;;12.50;99.90;;;;;;6188909;23;20005;-95
2021/08/11 01:34:59;;;;;;;8.73;5.90;;;12.50;99.90;;;;;;6191385;23;20040;-94
2021/08/11 01:37:30;;;;;;;9.00;5.80;;;12.60;99.90;;;;;;6195379;23;20009;-94
2021/08/11 01:40:00;;;;;;;8.05;5.65;;;12.50;99.90;;;;;;6199761;23;20001;-93
2021/08/11 01:42:33;;;;;;;8.90;6.35;;;12.60;99.90;;;;;;6213272;23;20004;-94
2021/08/11 01:45:24;;;;;;;10.55;6.20;;;12.60;99.90;;;;;;6188029;23;20009;-94
2021/08/11 01:47:57;;;;;;;9.02;6.60;;;12.50;99.90;;;;;;6187181;23;20018;-95
2021/08/11 01:50:26;;;;;;;10.13;6.63;;;12.50;99.90;;;;;;6187178;23;20029;-94
2021/08/11 01:52:54;;;;;;;10.18;6.13;;;12.50;99.90;;;;;;6189182;23;20005;-94
2021/08/11 01:55:20;;;;;;;9.10;5.78;;;12.50;99.90;;;;;;6189659;23;20028;-93
2021/08/11 01:57:54;;;;;;;9.43;6.53;;;12.50;99.90;;;;;;6214989;23;20036;-94
2021/08/11 02:00:22;;;;;;;10.32;6.05;;;12.50;99.90;;;;;;6190499;23;20025;-95
2021/08/11 02:02:48;;;;;;;7.85;5.95;;;12.50;99.90;;;;;;6189383;23;20047;-94
2021/08/11 02:05:16;;;;;;;8.57;5.82;;;12.50;99.90;;;;;;6186127;23;20020;-96
2021/08/11 02:07:42;;;;;;;7.32;5.78;;;12.50;99.90;;;;;;6186492;23;20456;-94
2021/08/11 02:10:10;;;;;;;9.73;6.30;;;12.40;99.90;;;;;;6187428;23;20103;-94
2021/08/11 02:12:36;;;;;;;11.30;5.07;;;12.40;99.90;;;;;;6212845;23;20024;-94
2021/08/11 02:15:08;;;;;;;7.35;5.47;;;12.30;99.90;;;;;;6187030;23;20009;-93
2021/08/11 02:17:37;;;;;;;8.15;5.40;;;12.30;99.90;;;;;;6187382;23;20401;-93
2021/08/11 02:20:04;;;;;;;12.52;5.20;;;12.30;99.90;;;;;;6190788;23;20071;-94
2021/08/11 02:22:29;;;;;;;8.13;4.57;;;12.30;99.90;;;;;;6191197;23;20001;-94
2021/08/11 02:24:55;;;;;;;8.38;5.20;;;12.20;99.90;;;;;;6192479;23;20012;-95
2021/08/11 02:27:27;;;;;;;8.57;4.88;;;12.20;99.90;;;;;;6221978;23;20016;-94
2021/08/11 02:30:14;;;;;;;8.93;5.38;;;12.20;99.90;;;;;;6196081;23;20065;-93
2021/08/11 02:32:48;;;;;;;9.57;5.53;;;12.20;99.90;;;;;;6192918;23;20001;-94
2021/08/11 02:35:25;;;;;;;7.82;5.30;;;12.20;99.90;;;;;;6188854;23;20099;-94
2021/08/11 02:38:08;;;;;;;7.50;4.80;;;12.10;99.90;;;;;;6186342;23;20021;-94
2021/08/11 02:40:39;;;;;;;8.45;5.63;;;12.20;99.90;;;;;;6184653;23;19997;-95
2021/08/11 02:43:29;;;;;;;12.70;6.10;;;12.20;99.90;;;;;;6210316;23;20013;-95
2021/08/11 02:46:00;;;;;;;11.23;6.67;;;12.20;99.90;;;;;;6184393;23;20064;-94
2021/08/11 02:48:28;;;;;;;17.17;7.78;;;12.30;99.90;;;;;;6184669;23;20009;-93
2021/08/11 02:50:54;;;;;;;9.80;6.65;;;12.30;99.90;;;;;;6184793;23;20393;-94
2021/08/11 02:53:22;;;;;;;10.60;6.57;;;12.30;99.90;;;;;;6184486;23;20023;-93
2021/08/11 02:55:49;;;;;;;14.98;7.30;;;12.40;99.90;;;;;;6190753;23;20012;-94
2021/08/11 02:58:17;;;;;;;12.13;7.20;;;12.40;99.90;;;;;;6193724;23;20571;-96
2021/08/11 03:00:43;;;;;;;8.85;5.88;;;12.40;99.90;;;;;;6208302;23;20013;-92
2021/08/11 03:03:09;;;;;;;8.82;5.80;;;12.40;99.90;;;;;;6183503;23;20424;-94
2021/08/11 03:05:35;;;;;;;9.52;5.60;;;12.40;99.90;;;;;;6183073;23;20455;-94
2021/08/11 03:08:02;;;;;;;8.65;5.93;;;12.30;99.90;;;;;;6183609;23;20103;-95
2021/08/11 03:10:28;;;;;;;8.23;5.70;;;12.20;99.90;;;;;;6183175;23;20040;-92
2021/08/11 03:12:55;;;;;;;10.60;6.32;;;12.10;99.90;;;;;;6183748;23;20005;-93
2021/08/11 03:15:21;;;;;;;10.95;6.72;;;12.10;99.90;;;;;;6185531;23;20015;-94
2021/08/11 03:17:48;;;;;;;10.77;6.00;;;12.00;99.90;;;;;;6210741;23;20037;-96
2021/08/11 03:20:14;;;;;;;10.98;6.82;;;12.00;99.90;;;;;;6186284;23;20504;-96
2021/08/11 03:22:39;;;;;;;12.38;6.13;;;11.90;99.90;;;;;;6160871;23;20009;-96
2021/08/11 03:25:06;;;;;;;12.52;6.60;;;11.90;99.90;;;;;;6185745;23;20013;-94
2021/08/11 03:27:31;;;;;;;9.63;6.32;;;11.90;99.90;;;;;;6185527;23;20005;-95
2021/08/11 03:29:57;;;;;;;10.60;6.25;;;11.90;99.90;;;;;;6185956;23;20005;-95
2021/08/11 03:32:23;;;;;;;12.68;6.15;;;11.90;99.90;;;;;;6186338;23;20056;-92
2021/08/11 03:34:48;;;;;;;10.10;6.20;;;11.90;99.90;;;;;;6211415;23;20004;-95
2021/08/11 03:37:16;;;;;;;10.10;6.65;;;11.90;99.90;;;;;;6186539;23;20008;-95
2021/08/11 03:39:43;;;;;;;13.65;6.97;;;11.90;99.90;;;;;;6185785;23;20020;-94
2021/08/11 03:42:09;;;;;;;11.13;6.35;;;11.90;99.90;;;;;;6185964;23;20008;-95
2021/08/11 03:44:35;;;;;;;8.25;5.88;;;11.90;99.90;;;;;;6187869;23;20009;-96
2021/08/11 03:47:00;;;;;;;9.73;6.22;;;11.90;99.90;;;;;;6186241;23;20004;-96
2021/08/11 03:49:26;;;;;;;8.75;5.90;;;11.90;99.90;;;;;;6185145;23;20012;-95
2021/08/11 03:51:52;;;;;;;10.75;6.65;;;11.90;99.90;;;;;;6159774;23;20041;-96
2021/08/11 03:54:17;;;;;;;13.35;7.03;;;11.80;99.90;;;;;;6184863;23;20031;-95
2021/08/11 03:56:43;;;;;;;10.32;6.00;;;11.80;99.90;;;;;;6185460;23;20008;-93
2021/08/11 03:59:11;;;;;;;12.90;6.10;;;11.80;99.90;;;;;;6185385;23;20021;-95
2021/08/11 04:01:37;;;;;;;8.13;5.95;;;11.80;99.90;;;;;;6185863;23;20011;-95
2021/08/11 04:04:03;;;;;;;7.90;5.68;;;11.80;99.90;;;;;;6185701;23;20244;-95
2021/08/11 04:06:28;;;;;;;11.57;6.57;;;11.80;99.90;;;;;;6161013;23;20009;-95
2021/08/11 04:08:54;;;;;;;10.77;6.60;;;11.80;99.90;;;;;;6187315;23;20068;-96
2021/08/11 04:11:19;;;;;;;10.32;6.80;;;11.90;99.90;;;;;;6159729;23;20055;-95
2021/08/11 04:13:45;;;;;;;11.23;7.20;;;11.90;99.90;;;;;;6159915;23;20384;-96
2021/08/11 04:16:11;;;;;;;10.02;6.22;;;11.90;99.90;;;;;;6159810;23;20056;-94
2021/08/11 04:18:36;;;;;;;15.63;7.22;;;11.90;99.90;;;;;;6159959;23;20013;-95
2021/08/11 04:21:02;;;;;;;11.65;7.47;;;11.80;99.90;;;;;;6160631;23;20036;-95
2021/08/11 04:23:28;;;;;;;12.25;6.78;;;11.80;99.90;;;;;;6162680;23;20051;-95
2021/08/11 04:25:54;;;;;;;10.93;6.30;;;11.80;99.90;;;;;;6194469;23;20001;-95
2021/08/11 04:28:20;;;;;;;11.45;6.97;;;11.80;99.90;;;;;;6161199;23;20092;-93
2021/08/11 04:30:46;;;;;;;11.38;7.43;;;11.70;99.90;;;;;;6161089;23;20052;-95
2021/08/11 04:33:11;;;;;;;15.73;8.18;;;11.80;99.90;;;;;;6160398;23;20005;-94
2021/08/11 04:35:41;;;;;;;10.63;6.63;;;11.80;99.90;;;;;;6160162;23;19997;-95
2021/08/11 04:38:07;;;;;;;12.25;6.82;;;11.80;99.90;;;;;;6160326;23;20013;-96
2021/08/11 04:40:37;;;;;;;13.75;6.50;;;11.70;99.90;;;;;;6185220;23;20015;-94
2021/08/11 04:43:03;;;;;;;13.05;6.88;;;11.70;99.90;;;;;;6160564;23;20009;-96
2021/08/11 04:45:29;;;;;;;12.38;6.47;;;11.70;99.90;;;;;;6160363;23;20005;-96
2021/08/11 04:47:55;;;;;;;10.35;6.68;;;11.70;99.90;;;;;;6159806;23;20142;-96
2021/08/11 04:50:20;;;;;;;9.75;6.82;;;11.60;99.90;;;;;;6160527;23;20013;-95
2021/08/11 04:52:46;;;;;;;13.63;6.88;;;11.70;99.90;;;;;;6160384;23;20314;-95
2021/08/11 04:55:12;;;;;;;12.75;7.00;;;11.60;99.90;;;;;;6160658;23;20024;-95
2021/08/11 04:57:38;;;;;;;10.02;7.18;;;11.60;99.90;;;;;;6184843;23;20013;-95
2021/08/11 05:00:05;;;;;;;16.05;7.13;;;11.60;99.90;;;;;;6160241;23;20096;-96
2021/08/11 05:02:32;;;;;;;9.73;6.93;;;11.70;99.90;;;;;;6159864;23;20005;-96
2021/08/11 05:04:58;;;;;;;10.38;7.10;;;11.70;99.90;;;;;;6168455;23;20020;-95
2021/08/11 05:07:24;;;;;;;12.52;7.35;;;11.70;99.90;;;;;;6213121;23;20024;-93
2021/08/11 05:09:50;;;;;;;11.88;6.88;;;11.70;99.90;;;;;;6187962;23;20436;-94
2021/08/11 05:12:16;;;;;;;13.35;7.50;;;11.70;99.90;;;;;;6190271;23;20012;-94
2021/08/11 05:14:41;;;;;;;11.00;6.97;;;11.70;99.90;;;;;;6199816;23;20031;-94
2021/08/11 05:17:07;;;;;;;12.93;7.18;;;11.70;99.90;;;;;;6198078;23;20009;-94
2021/08/11 05:19:33;;;;;;;10.73;6.90;;;11.70;99.90;;;;;;6194767;23;20027;-94
2021/08/11 05:21:59;;;;;;;17.52;8.10;;;11.70;99.90;;;;;;6190898;23;20001;-93
2021/08/11 05:24:25;;;;;;;15.00;8.18;;;11.70;99.90;;;;;;6212740;23;20100;-94
2021/08/11 05:26:51;;;;;;;14.48;7.32;;;11.70;99.90;;;;;;6186796;23;20005;-94
2021/08/11 05:29:20;;;;;;;14.63;7.32;;;11.70;99.90;;;;;;6187118;23;20017;-94
2021/08/11 05:31:46;;;;;;;10.77;6.38;;;11.70;99.90;;;;;;6186598;23;20013;-94
2021/08/11 05:34:11;;;;;;;12.65;7.22;;;11.70;99.90;;;;;;6186127;23;20012;-95
2021/08/11 05:36:37;;;;;;;12.43;7.68;;;11.80;99.90;;;;;;6186710;23;20028;-95
2021/08/11 05:39:04;;;;;;;15.55;7.15;;;11.80;99.90;;;;;;6187455;23;20013;-96
2021/08/11 05:41:30;;;;;;;12.90;7.05;;;11.80;99.90;;;;;;6212229;23;20009;-94
2021/08/11 05:43:55;;;;;;;15.52;8.38;;;11.90;99.90;;;;;;6186943;23;20009;-95
2021/08/11 05:46:21;;;;;;;15.43;7.40;;;11.90;99.90;;;;;;6186346;23;20066;-95
2021/08/11 05:48:47;;;;;;;13.43;7.22;;;11.90;99.90;;;;;;6186799;23;20096;-94
2021/08/11 05:51:13;;;;;;;11.13;7.50;;;12.00;99.90;;;;;;6187627;23;20001;-94
2021/08/11 05:53:40;;;;;;;11.80;7.65;;;12.00;99.90;;;;;;6200475;23;20005;-95
2021/08/11 05:56:05;;;;;;;9.75;6.68;;;12.00;99.90;;;;;;6214209;23;20008;-94
2021/08/11 05:58:32;;;;;;;10.00;7.20;;;12.10;99.90;;;;;;6187727;23;20076;-94
2021/08/11 06:01:01;;;;;;;13.05;6.97;;;12.10;99.90;;;;;;6187506;23;20005;-95
2021/08/11 06:03:26;;;;;;;13.93;7.30;;;12.10;99.90;;;;;;6185923;23;20394;-95
2021/08/11 06:05:52;;;;;;;21.60;7.53;;;12.10;99.90;;;;;;6186949;23;20020;-96
2021/08/11 06:08:18;;;;;;;11.60;6.82;;;12.20;99.90;;;;;;6186914;23;20032;-94
2021/08/11 06:10:43;;;;;;;11.52;7.63;;;12.20;99.90;;;;;;6211192;23;20013;-96
2021/08/11 06:13:09;;;;;;;13.00;6.82;;;12.20;99.90;;;;;;6212385;23;20005;-94
2021/08/11 06:15:35;;;;;;;10.02;6.88;;;12.20;99.90;;;;;;6187104;23;20450;-95
2021/08/11 06:18:01;;;;;;;16.23;7.70;;;12.20;99.90;;;;;;6187314;23;20009;-94
2021/08/11 06:20:26;;;;;;;10.32;6.97;;;12.30;99.90;;;;;;6190073;23;20017;-96
2021/08/11 06:22:52;;;;;;;13.43;7.63;;;12.40;99.90;;;;;;6188443;23;19997;-95
2021/08/11 06:25:18;;;;;;;12.57;7.32;;;12.40;99.90;;;;;;6187344;23;20051;-95
2021/08/11 06:27:44;;;;;;;11.05;6.72;;;12.50;99.90;;;;;;6186323;23;20005;-95
2021/08/11 06:30:12;;;;;;;10.38;6.43;;;12.60;99.90;;;;;;6211034;23;20153;-94
2021/08/11 06:32:38;;;;;;;12.27;6.22;;;12.70;99.90;;;;;;6186317;23;20068;-94
2021/08/11 06:35:05;;;;;;;8.52;6.28;;;12.80;99.90;;;;;;6188674;23;20115;-94
2021/08/11 06:37:30;;;;;;;10.27;6.53;;;13.00;99.90;;;;;;6187711;23;20005;-95
2021/08/11 06:39:56;;;;;;;14.10;6.68;;;13.00;99.90;;;;;;6186588;23;20016;-94
2021/08/11 06:42:22;;;;;;;13.65;6.30;;;13.20;99.90;;;;;;6199367;23;20114;-96
2021/08/11 06:44:48;;;;;;;10.50;5.57;;;13.30;99.90;;;;;;6197668;23;20009;-96
2021/08/11 06:47:14;;;;;;;13.63;5.45;;;13.30;99.90;;;;;;6188843;23;20016;-95
2021/08/11 06:49:40;;;;;;;12.00;6.03;;;13.40;99.90;;;;;;6189840;23;20447;-96
2021/08/11 06:52:07;;;;;;;10.18;5.55;;;13.50;99.90;;;;;;6188379;23;20004;-95
2021/08/11 06:54:33;;;;;;;8.10;5.03;;;13.60;99.90;;;;;;6191444;23;20029;-95
2021/08/11 06:57:00;;;;;;;9.18;4.80;;;13.70;99.90;;;;;;6195630;23;20005;-95
2021/08/11 06:59:25;;;;;;;10.07;4.90;;;13.70;99.90;;;;;;6200948;23;20081;-95
2021/08/11 07:01:58;;;;;;;10.32;5.07;;;13.80;99.90;;;;;;6198933;23;20005;-96
2021/08/11 07:04:24;;;;;;;9.93;4.65;;;13.80;99.90;;;;;;6205871;23;20021;-95
2021/08/11 07:06:50;;;;;;;8.43;4.80;;;13.90;99.90;;;;;;6163338;23;20425;-96
2021/08/11 07:11:51;;;;;;;7.45;4.22;;;14.00;99.90;;;;;;6295798;22;20066;-94
2021/08/11 07:14:17;;;;;;;6.00;3.70;;;14.10;99.90;;;;;;6261951;22;20008;-95
2021/08/11 07:16:44;;;;;;;6.93;3.58;;;14.20;99.90;;;;;;6271745;22;20007;-96
2021/08/11 07:19:10;;;;;;;12.70;4.82;;;14.30;99.90;;;;;;6286921;22;20086;-94
2021/08/11 07:21:36;;;;;;;6.03;3.83;;;14.30;99.90;;;;;;6294518;22;20019;-93
2021/08/11 07:24:02;;;;;;;6.32;3.90;;;14.40;99.90;;;;;;6289462;22;20004;-95
2021/08/11 07:26:27;;;;;;;5.88;4.07;;;14.50;99.90;;;;;;6280811;22;20026;-94
2021/08/11 07:28:54;;;;;;;11.98;3.90;;;14.50;99.90;;;;;;6255206;22;20036;-94
2021/08/11 07:31:20;;;;;;;12.50;4.20;;;14.60;99.90;;;;;;6254588;22;19996;-94
2021/08/11 07:33:46;;;;;;;7.43;4.18;;;14.60;99.90;;;;;;6256995;22;20018;-95
2021/08/11 07:36:14;;;;;;;7.63;4.00;;;14.60;99.90;;;;;;6288875;22;20007;-96
2021/08/11 07:38:43;;;;;;;9.55;4.28;;;14.70;99.90;;;;;;6264607;22;20004;-96
2021/08/11 07:41:09;;;;;;;8.75;4.88;;;14.70;99.90;;;;;;6291490;22;19992;-94
2021/08/11 07:43:34;;;;;;;4.35;3.35;;;14.80;99.90;;;;;;6255116;22;20053;-95
2021/08/11 07:46:02;;;;;;;11.20;3.72;;;14.80;99.90;;;;;;6252014;22;20014;-96
2021/08/11 07:48:36;;;;;;;8.43;3.80;;;14.80;99.90;;;;;;6251513;22;20004;-96
2021/08/11 07:51:03;;;;;;;8.82;3.80;;;14.90;99.90;;;;;;6250602;22;20004;-95
2021/08/11 07:53:29;;;;;;;7.18;4.13;;;14.90;99.90;;;;;;6254783;22;20319;-95
2021/08/11 07:55:55;;;;;;;7.90;3.42;;;14.90;99.90;;;;;;6256529;22;20004;-95
2021/08/11 07:58:23;;;;;;;6.57;3.78;;;15.00;99.90;;;;;;6262799;22;20019;-96
2021/08/11 08:00:50;;;;;;;10.88;3.78;;;15.00;99.90;;;;;;6271104;22;20018;-96
2021/08/11 08:03:19;;;;;;;6.70;3.42;;;15.10;99.90;;;;;;6265243;22;20027;-96
2021/08/11 08:05:45;;;;;;;5.60;3.42;;;15.10;99.90;;;;;;6263218;22;20007;-96
2021/08/11 08:08:11;;;;;;;8.00;4.45;;;15.20;99.90;;;;;;6258825;22;19999;-96
2021/08/11 08:10:37;;;;;;;7.88;3.90;;;15.20;99.90;;;;;;6265725;22;20007;-96
2021/08/11 08:13:03;;;;;;;7.40;3.80;;;15.30;99.90;;;;;;6284461;22;20015;-96
2021/08/11 08:15:29;;;;;;;5.95;3.75;;;15.40;99.90;;;;;;6282346;22;20003;-96
2021/08/11 08:17:55;;;;;;;3.58;3.17;;;15.40;99.90;;;;;;6286171;22;20402;-96
2021/08/11 08:20:29;;;;;;;4.82;2.95;;;15.50;99.90;;;;;;6316751;22;20279;-96
2021/08/11 08:23:02;;;;;;;5.13;3.08;;;15.60;99.90;;;;;;6287980;22;20014;-95
2021/08/11 08:25:27;;;;;;;5.97;3.30;;;15.60;99.90;;;;;;6313908;22;20007;-95
2021/08/11 08:27:58;;;;;;;8.85;3.70;;;15.60;99.90;;;;;;6286461;22;20004;-96
2021/08/11 08:30:27;;;;;;;9.23;3.88;;;15.70;99.90;;;;;;6289178;22;19999;-96
2021/08/11 08:32:56;;;;;;;7.13;3.40;;;15.70;99.90;;;;;;6318489;22;20093;-96
2021/08/11 08:35:23;;;;;;;8.60;3.58;;;15.70;99.90;;;;;;6269765;22;20007;-96
2021/08/11 08:37:52;;;;;;;8.50;3.22;;;15.80;99.90;;;;;;6271529;22;20007;-96
2021/08/11 08:40:18;;;;;;;4.97;3.00;;;15.90;99.90;;;;;;6270270;22;20011;-96
2021/08/11 08:42:45;;;;;;;8.20;3.05;;;15.90;99.90;;;;;;6301318;22;19999;-96
2021/08/11 08:45:13;;;;;;;4.53;3.03;;;16.00;99.90;;;;;;6333823;22;19999;-96
2021/08/11 08:47:40;;;;;;;7.22;3.20;;;16.10;99.90;;;;;;6304685;22;20061;-96
2021/08/11 08:52:51;;;;;;;4.68;3.17;;;16.30;99.90;;;;;;6288672;22;20014;-96
2021/08/11 08:55:35;;;;;;;6.57;3.10;;;16.40;99.90;;;;;;6269899;22;20027;-95
2021/08/11 08:58:02;;;;;;;8.27;2.92;;;16.50;99.90;;;;;;6271441;22;20019;-95
2021/08/11 09:03:16;;;;;;;3.28;2.72;;;16.80;99.90;;;;;;6291101;22;20031;-95
2021/08/11 09:05:42;;;;;;;4.63;3.05;;;16.90;99.90;;;;;;6259430;22;20035;-95
2021/08/11 09:08:08;;;;;;;7.00;2.80;;;17.00;99.90;;;;;;6256019;22;20039;-94
2021/08/11 09:10:43;;;;;;;3.42;2.50;;;17.20;99.90;;;;;;6266062;22;20010;-95
2021/08/11 09:13:21;;;;;;;8.18;2.80;;;17.30;99.90;;;;;;6288689;22;20008;-96
2021/08/11 09:16:03;;;;;;;3.75;2.53;;;17.40;99.90;;;;;;6295772;22;19987;-95
2021/08/11 09:22:15;;;;;;;5.57;2.60;;;17.70;99.90;;;;;;6334456;22;19998;-95
2021/08/11 09:27:25;;;;;;;5.88;2.55;;;18.10;99.90;;;;;;6292776;22;20017;-95
2021/08/11 09:39:03;;;;;;;4.82;2.70;;;19.20;99.90;;;;;;6363961;22;20036;-95
2021/08/11 09:41:35;;;;;;;4.38;2.53;;;19.40;99.90;;;;;;6361619;22;20067;-96
2021/08/11 09:44:13;;;;;;;4.32;2.92;;;19.50;99.90;;;;;;6336875;22;20003;-96
2021/08/11 09:46:41;;;;;;;5.72;3.00;;;19.60;99.80;;;;;;6338491;22;19991;-96
2021/08/11 09:49:19;;;;;;;5.80;3.40;;;19.70;99.60;;;;;;6363322;22;19987;-95
2021/08/11 09:52:22;;;;;;;5.97;3.00;;;19.80;99.40;;;;;;6333417;22;20029;31
2021/08/11 09:54:59;;;;;;;4.68;3.28;;;20.00;99.10;;;;;;6180403;23;20001;-96
2021/08/11 09:57:29;;;;;;;7.53;3.17;;;20.10;98.40;;;;;;6152926;23;20012;-95
2021/08/11 09:59:56;;;;;;;4.40;3.05;;;20.20;98.10;;;;;;6151767;23;20049;-96
2021/08/11 10:02:30;;;;;;;7.38;3.40;;;20.40;97.20;;;;;;6182150;23;20035;-96
2021/08/11 10:05:18;;;;;;;6.05;3.47;;;20.40;96.30;;;;;;6158119;23;19994;-96
2021/08/11 10:08:06;;;;;;;6.60;3.10;;;20.30;95.90;;;;;;6068853;23;20003;-96
2021/08/11 10:27:49;;;;;;;5.65;3.22;;;20.50;95.20;;;;;;6267528;22;20045;-95
2021/08/11 10:30:27;;;;;;;6.47;4.28;;;20.60;95.20;;;;;;6358810;22;19999;-95
2021/08/11 11:33:20;;;;;;;7.05;3.60;;;20.90;90.90;;;;;;6253214;22;20033;-96
2021/08/11 12:21:42;;;;;;;5.50;3.35;;;21.20;90.40;;;;;;6281124;22;20018;-96
2021/08/11 12:26:43;;;;;;;6.90;3.58;;;21.20;90.80;;;;;;6337202;22;20033;-95
2021/08/11 12:29:23;;;;;;;13.40;3.28;;;21.20;91.00;;;;;;6323143;22;20042;-95
2021/08/11 12:32:03;;;;;;;6.82;2.83;;;21.10;91.10;;;;;;6326081;22;20010;-96
2021/08/11 12:34:36;;;;;;;;;;;21.10;91.10;;;;;;6331254;22;19994;-96
2021/08/11 12:51:48;;;;;;;7.90;3.67;;;20.80;92.80;;;;;;6317764;22;20034;-95
2021/08/11 12:54:17;;;;;;;8.60;4.00;;;20.80;92.80;;;;;;6322127;22;20006;-95
2021/08/11 12:56:57;;;;;;;6.82;5.03;;;20.70;92.70;;;;;;6338928;22;20019;-95
2021/08/11 13:34:39;;;;;;;5.80;3.65;;;19.80;95.90;;;;;;6256979;22;19922;-96
2021/08/11 13:37:20;;;;;;;5.63;3.70;;;19.80;96.00;;;;;;6305224;22;20014;-96
2021/08/11 13:39:46;;;;;;;5.95;3.83;;;19.80;96.10;;;;;;6322315;22;20011;-95
2021/08/11 13:42:23;;;;;;;6.40;3.30;;;19.80;96.30;;;;;;6321361;22;20014;-96
2021/08/11 13:44:52;;;;;;;6.72;3.28;;;19.80;96.50;;;;;;6334234;22;20006;-96
2021/08/11 13:47:21;;;;;;;3.70;3.00;;;19.90;96.50;;;;;;6328999;22;19983;-95
2021/08/11 13:49:55;;;;;;;8.75;3.60;;;19.90;96.60;;;;;;6326378;22;20025;-95
2021/08/11 13:52:33;;;;;;;5.38;2.90;;;19.90;96.60;;;;;;6329634;22;20011;-96
2021/08/11 13:55:34;;;;;;;4.55;2.50;;;20.00;96.50;;;;;;6257882;22;20098;-96
2021/08/11 13:58:04;;;;;;;4.90;2.58;;;20.00;96.40;;;;;;6270033;22;20022;-95
2021/08/11 14:06:01;;;;;;;5.28;2.50;;;20.90;95.40;;;;;;6276026;22;20050;-95
2021/08/11 14:08:34;;;;;;;3.90;3.00;;;21.40;94.80;;;;;;6267911;22;20399;-96
2021/08/11 14:11:08;;;;;;;3.05;2.20;;;21.80;94.10;;;;;;6319697;22;20003;-96
2021/08/11 14:13:34;;;;;;;3.67;2.25;;;22.10;93.20;;;;;;6289686;22;20049;-96
2021/08/11 14:16:03;;;;;;;3.65;2.13;;;22.20;92.50;;;;;;6289691;22;20003;-96
2021/08/11 14:18:32;;;;;;;7.70;2.10;;;22.20;92.00;;;;;;6327503;22;20042;-96
2021/08/11 14:21:26;;;;;;;4.38;2.25;;;22.20;91.70;;;;;;6301863;22;20004;-96
2021/08/11 14:24:02;;;;;;;3.88;2.25;;;22.10;91.60;;;;;;6292963;22;20007;-94
2021/08/11 14:26:28;;;;;;;2.50;1.90;;;22.00;91.30;;;;;;6293547;22;20030;-94
2021/08/11 14:29:03;;;;;;;7.50;2.55;;;21.80;91.50;;;;;;6291623;22;20003;-96
2021/08/11 14:31:34;;;;;;;3.35;2.45;;;21.70;91.50;;;;;;6287368;22;20030;-96
2021/08/11 14:34:23;;;;;;;3.08;2.15;;;21.50;91.70;;;;;;6288219;22;19999;-96
2021/08/11 14:36:49;;;;;;;3.17;2.42;;;21.30;92.10;;;;;;6286053;22;20007;-96
2021/08/11 14:39:14;;;;;;;4.38;2.30;;;21.20;92.40;;;;;;6287584;22;20019;-95
2021/08/11 14:41:44;;;;;;;2.72;2.00;;;21.00;92.50;;;;;;6291124;22;20000;-95
2021/08/11 14:44:10;;;;;;;3.92;2.15;;;20.80;92.90;;;;;;6286716;22;20007;-95
2021/08/11 14:46:38;;;;;;;2.03;1.80;;;20.80;93.30;;;;;;6296283;22;20041;-94
2021/08/11 14:49:04;;;;;;;6.05;2.25;;;20.70;93.50;;;;;;6288627;22;20007;-95
2021/08/11 14:51:30;;;;;;;3.33;2.30;;;20.70;93.80;;;;;;6289209;22;20000;-95
2021/08/11 14:54:01;;;;;;;5.28;2.15;;;20.70;93.90;;;;;;6286871;22;20125;-96
2021/08/11 14:56:37;;;;;;;3.10;2.50;;;20.70;94.10;;;;;;6318095;22;20005;-96
2021/08/11 14:59:10;;;;;;;3.72;2.50;;;20.70;94.20;;;;;;6283362;22;20022;-96
2021/08/11 15:01:42;;;;;;;4.30;2.63;;;20.70;94.50;;;;;;6289415;22;20062;-96
2021/08/11 15:04:10;;;;;;;4.28;2.70;;;20.70;94.70;;;;;;6310662;22;20014;-95
2021/08/11 15:06:37;;;;;;;5.20;2.85;;;20.60;95.00;;;;;;6286117;22;20431;-95
2021/08/11 15:09:06;;;;;;;5.20;3.08;;;20.40;95.00;;;;;;6284131;22;20010;-95
2021/08/11 15:11:34;;;;;;;3.63;2.63;;;20.30;95.50;;;;;;6287255;22;20092;-95
2021/08/11 15:14:11;;;;;;;3.92;2.80;;;20.40;96.00;;;;;;6288062;22;20470;-96
2021/08/11 15:17:01;;;;;;;;;;;;;;;;;;;;;
2021/08/11 15:19:29;;;;;;;5.47;3.40;;;20.50;96.20;;;;;;6304628;22;20063;-96
2021/08/11 15:21:55;;;;;;;3.78;2.72;;;20.60;96.60;;;;;;6279217;22;20068;-95
2021/08/11 15:24:33;;;;;;;4.38;2.67;;;20.90;96.80;;;;;;6287334;22;20023;-95
2021/08/11 15:27:22;;;;;;;7.55;3.08;;;21.20;96.20;;;;;;6286158;22;20363;-96
2021/08/11 15:29:59;;;;;;;4.60;2.70;;;21.50;95.90;;;;;;6315550;22;19999;-95
2021/08/11 15:32:35;;;;;;;4.53;2.78;;;21.40;95.10;;;;;;6318204;22;20004;-96
2021/08/11 15:35:07;;;;;;;3.55;2.92;;;21.30;94.90;;;;;;6292010;22;20437;-96
2021/08/11 15:37:58;;;;;;;4.43;2.75;;;21.20;94.90;;;;;;6317656;22;20029;-96
2021/08/11 15:40:32;;;;;;;4.28;2.83;;;21.00;95.20;;;;;;6301124;22;20106;-96
2021/08/11 15:43:01;;;;;;;4.30;3.17;;;20.90;95.60;;;;;;6294473;22;20090;-96
2021/08/11 17:12:01;;;;;;;3.28;2.47;;;19.80;98.30;;;;;;6278930;22;20102;-94
2021/08/11 17:33:11;;;;;;;8.63;2.90;;;19.70;99.10;;;;;;6145838;23;20077;-94
2021/08/11 17:35:42;;;;;;;5.60;2.63;;;19.60;99.30;;;;;;6121609;23;20013;-94
2021/08/11 17:51:12;;;;;;;4.30;2.30;;;19.40;99.90;;;;;;6226901;22;20069;-95
2021/08/11 17:53:42;;;;;;;3.40;2.20;;;19.40;99.90;;;;;;6304486;22;20016;-95
2021/08/11 18:09:12;;;;;;;3.72;2.75;;;19.20;99.90;;;;;;6242367;22;20048;-94
2021/08/11 18:11:43;;;;;;;4.88;2.58;;;19.20;99.90;;;;;;6316451;22;20006;-94
2021/08/11 18:14:16;;;;;;;6.07;2.88;;;19.20;99.90;;;;;;6314891;22;20036;-94
2021/08/11 18:16:46;;;;;;;5.28;2.90;;;19.10;99.90;;;;;;6312525;22;20015;-96
2021/08/11 18:19:12;;;;;;;3.15;2.70;;;19.10;99.90;;;;;;6315227;22;20013;-93
2021/08/11 18:21:37;;;;;;;4.45;2.55;;;19.10;99.90;;;;;;6312217;22;20002;-95
2021/08/11 18:24:11;;;;;;;4.47;2.80;;;19.20;99.90;;;;;;6313021;22;20082;-94
2021/08/11 18:26:37;;;;;;;4.65;3.03;;;19.20;99.90;;;;;;6315233;22;20014;-95
2021/08/11 18:29:05;;;;;;;5.07;2.70;;;19.20;99.90;;;;;;6322790;22;20066;-96
2021/08/11 18:31:37;;;;;;;4.95;2.72;;;19.10;99.90;;;;;;6309030;22;20010;-95